createdAt,value
2018-01-22T00:00:48.138Z,10.77
2018-01-22T00:03:16.565Z,11.90
2018-01-22T00:05:45.003Z,12.40
2018-01-22T00:08:13.474Z,11.77
2018-01-22T00:10:41.913Z,12.00
2018-01-22T00:13:10.361Z,12.30
2018-01-22T00:15:38.814Z,11.87
2018-01-22T00:18:07.227Z,12.00
2018-01-22T00:20:35.613Z,11.70
2018-01-22T00:23:04.043Z,12.33
2018-01-22T00:25:32.478Z,11.67
2018-01-22T00:28:00.879Z,12.10
2018-01-22T00:30:29.329Z,13.43
2018-01-22T00:32:57.758Z,13.50
2018-01-22T00:35:26.175Z,13.23
2018-01-22T00:37:54.658Z,13.13
2018-01-22T00:40:23.077Z,11.83
2018-01-22T00:42:51.489Z,11.83
2018-01-22T00:45:19.929Z,12.50
2018-01-22T00:47:48.352Z,12.77
2018-01-22T00:50:16.774Z,12.10
2018-01-22T00:52:45.253Z,13.33
2018-01-22T00:55:13.661Z,12.53
2018-01-22T00:57:42.073Z,12.10
2018-01-22T01:00:11.429Z,12.60
2018-01-22T01:02:39.845Z,12.37
2018-01-22T01:05:08.278Z,12.77
2018-01-22T01:07:36.749Z,11.87
2018-01-22T01:10:05.140Z,11.93
2018-01-22T01:12:33.555Z,13.00
2018-01-22T01:15:01.980Z,13.57
2018-01-22T01:17:30.366Z,14.50
2018-01-22T01:19:58.781Z,14.07
2018-01-22T01:22:27.278Z,14.13
2018-01-22T01:24:55.705Z,14.53
2018-01-22T01:27:24.138Z,15.47
2018-01-22T01:29:52.601Z,14.90
2018-01-22T01:32:21.018Z,14.53
2018-01-22T01:34:49.414Z,14.87
2018-01-22T01:37:17.865Z,15.13
2018-01-22T01:39:46.289Z,14.47
2018-01-22T01:42:14.677Z,13.90
2018-01-22T01:44:43.117Z,15.07
2018-01-22T01:47:11.507Z,15.03
2018-01-22T01:49:39.938Z,14.67
2018-01-22T01:52:08.403Z,13.90
2018-01-22T01:54:36.806Z,14.43
2018-01-22T01:57:05.209Z,13.80
2018-01-22T01:59:33.642Z,13.53
2018-01-22T02:02:02.048Z,14.03
2018-01-22T02:04:30.469Z,13.93
2018-01-22T02:06:58.930Z,13.43
2018-01-22T02:09:32.163Z,13.53
2018-01-22T02:12:00.625Z,13.83
2018-01-22T02:14:29.057Z,13.80
2018-01-22T02:16:57.494Z,12.60
2018-01-22T02:19:25.959Z,12.40
2018-01-22T02:21:54.357Z,12.83
2018-01-22T02:24:22.774Z,12.43
2018-01-22T02:26:51.198Z,11.63
2018-01-22T02:29:19.585Z,12.00
2018-01-22T02:31:48.043Z,11.40
2018-01-22T02:34:16.512Z,12.70
2018-01-22T02:36:44.889Z,13.20
2018-01-22T02:39:13.285Z,12.90
2018-01-22T02:41:41.750Z,12.80
2018-01-22T02:44:10.141Z,12.07
2018-01-22T02:46:38.597Z,11.10
2018-01-22T02:49:07.045Z,11.77
2018-01-22T02:51:35.771Z,11.27
2018-01-22T02:54:04.215Z,11.50
2018-01-22T02:56:32.693Z,12.13
2018-01-22T02:59:01.126Z,10.17
2018-01-22T03:01:29.564Z,10.17
2018-01-22T03:03:58.018Z,10.23
2018-01-22T03:06:26.408Z,9.43
2018-01-22T03:08:54.842Z,10.27
2018-01-22T03:11:23.335Z,10.33
2018-01-22T03:13:51.726Z,10.20
2018-01-22T03:16:20.154Z,9.73
2018-01-22T03:18:48.638Z,8.73
2018-01-22T03:21:17.084Z,10.03
2018-01-22T03:23:45.517Z,9.07
2018-01-22T03:26:13.961Z,9.80
2018-01-22T03:28:42.354Z,10.13
2018-01-22T03:31:10.796Z,9.47
2018-01-22T03:33:39.262Z,9.43
2018-01-22T03:36:07.687Z,8.77
2018-01-22T03:38:36.107Z,8.83
2018-01-22T03:41:04.582Z,9.40
2018-01-22T03:43:32.969Z,9.03
2018-01-22T03:46:01.358Z,9.00
2018-01-22T03:48:29.815Z,8.57
2018-01-22T03:50:58.243Z,9.80
2018-01-22T03:53:26.630Z,9.47
2018-01-22T03:55:55.054Z,9.43
2018-01-22T03:58:23.444Z,9.13
2018-01-22T04:00:51.855Z,8.50
2018-01-22T04:03:20.334Z,9.40
2018-01-22T04:05:48.731Z,9.80
2018-01-22T04:08:17.146Z,9.20
2018-01-22T04:10:45.625Z,8.67
2018-01-22T04:13:14.026Z,8.93
2018-01-22T04:15:42.426Z,9.30
2018-01-22T04:18:11.806Z,8.73
2018-01-22T04:20:40.194Z,9.80
2018-01-22T04:23:08.605Z,9.07
2018-01-22T04:25:37.056Z,8.33
2018-01-22T04:28:05.481Z,8.70
2018-01-22T04:30:33.863Z,9.00
2018-01-22T04:33:02.319Z,9.23
2018-01-22T04:35:30.741Z,8.93
2018-01-22T04:37:59.129Z,9.13
2018-01-22T04:40:27.573Z,9.50
2018-01-22T04:42:56.002Z,9.07
2018-01-22T04:45:24.471Z,8.60
2018-01-22T04:47:52.927Z,8.63
2018-01-22T04:50:21.331Z,8.50
2018-01-22T04:52:49.761Z,9.03
2018-01-22T04:55:18.262Z,8.87
2018-01-22T04:57:46.662Z,9.43
2018-01-22T05:00:15.083Z,9.23
2018-01-22T05:02:43.521Z,9.13
2018-01-22T05:05:11.927Z,9.20
2018-01-22T05:07:40.351Z,8.63
2018-01-22T05:10:08.789Z,8.87
2018-01-22T05:12:37.222Z,9.03
2018-01-22T05:15:05.645Z,8.90
2018-01-22T05:17:34.067Z,8.87
2018-01-22T05:20:02.831Z,9.60
2018-01-22T05:22:31.253Z,8.73
2018-01-22T05:24:59.693Z,9.67
2018-01-22T05:27:28.086Z,7.83
2018-01-22T05:29:56.499Z,8.07
2018-01-22T05:32:24.957Z,8.20
2018-01-22T05:34:53.340Z,9.50
2018-01-22T05:37:21.776Z,9.10
2018-01-22T05:39:50.214Z,9.03
2018-01-22T05:42:18.652Z,9.00
2018-01-22T05:44:47.093Z,9.23
2018-01-22T05:47:15.575Z,9.03
2018-01-22T05:49:43.962Z,9.27
2018-01-22T05:52:12.386Z,9.60
2018-01-22T05:54:40.838Z,8.83
2018-01-22T05:57:09.270Z,8.70
2018-01-22T05:59:37.697Z,9.17
2018-01-22T06:02:13.028Z,9.17
2018-01-22T06:04:41.480Z,9.57
2018-01-22T06:07:09.928Z,9.47
2018-01-22T06:09:38.397Z,10.13
2018-01-22T06:12:06.828Z,9.03
2018-01-22T06:14:35.247Z,9.63
2018-01-22T06:17:03.686Z,9.47
2018-01-22T06:19:32.122Z,9.40
2018-01-22T06:22:00.562Z,8.83
2018-01-22T06:24:29.044Z,9.50
2018-01-22T06:26:57.473Z,9.07
2018-01-22T06:29:25.932Z,9.23
2018-01-22T06:31:54.411Z,9.27
2018-01-22T06:34:22.807Z,9.07
2018-01-22T06:36:51.231Z,8.80
2018-01-22T06:39:19.702Z,9.60
2018-01-22T06:41:48.130Z,9.03
2018-01-22T06:44:16.549Z,9.47
2018-01-22T06:46:45.008Z,8.73
2018-01-22T06:49:13.408Z,9.77
2018-01-22T06:51:41.786Z,9.77
2018-01-22T06:54:10.272Z,10.13
2018-01-22T06:56:38.720Z,10.30
2018-01-22T06:59:07.151Z,9.83
2018-01-22T07:01:35.581Z,9.03
2018-01-22T07:04:03.979Z,8.67
2018-01-22T07:06:32.366Z,8.70
2018-01-22T07:09:00.851Z,10.13
2018-01-22T07:11:29.310Z,9.17
2018-01-22T07:13:57.731Z,9.67
2018-01-22T07:16:26.196Z,9.07
2018-01-22T07:18:54.615Z,9.33
2018-01-22T07:21:23.033Z,8.83
2018-01-22T07:23:51.507Z,9.03
2018-01-22T07:26:19.923Z,8.53
2018-01-22T07:28:48.319Z,8.93
2018-01-22T07:31:16.865Z,8.97
2018-01-22T07:33:45.278Z,7.70
2018-01-22T07:36:13.694Z,8.60
2018-01-22T07:38:42.127Z,8.07
2018-01-22T07:41:10.515Z,9.30
2018-01-22T07:43:38.897Z,8.47
2018-01-22T07:46:07.328Z,9.03
2018-01-22T07:48:35.742Z,8.17
2018-01-22T07:51:04.133Z,8.10
2018-01-22T07:53:32.594Z,7.83
2018-01-22T07:56:01.003Z,8.13
2018-01-22T07:58:29.416Z,8.93
2018-01-22T08:00:57.872Z,8.30
2018-01-22T08:03:26.259Z,8.17
2018-01-22T08:05:54.698Z,8.23
2018-01-22T08:08:23.137Z,7.70
2018-01-22T08:10:51.519Z,8.37
2018-01-22T08:13:19.896Z,7.50
2018-01-22T08:15:48.352Z,7.53
2018-01-22T08:18:16.802Z,7.30
2018-01-22T08:20:45.220Z,7.40
2018-01-22T08:23:13.686Z,7.10
2018-01-22T08:25:42.069Z,7.53
2018-01-22T08:28:10.450Z,8.40
2018-01-22T08:30:38.908Z,7.80
2018-01-22T08:33:07.314Z,7.67
2018-01-22T08:35:35.706Z,7.73
2018-01-22T08:38:04.148Z,6.67
2018-01-22T08:40:32.529Z,7.60
2018-01-22T08:43:00.935Z,7.67
2018-01-22T08:45:29.399Z,7.87
2018-01-22T08:47:57.809Z,7.37
2018-01-22T08:50:26.189Z,7.73
2018-01-22T08:52:54.681Z,7.90
2018-01-22T08:55:23.102Z,8.10
2018-01-22T08:57:51.512Z,8.33
2018-01-22T09:00:19.959Z,8.47
2018-01-22T09:02:48.371Z,8.70
2018-01-22T09:05:16.782Z,8.00
2018-01-22T09:07:45.506Z,8.40
2018-01-22T09:10:13.882Z,7.90
2018-01-22T09:12:42.262Z,7.87
2018-01-22T09:15:10.701Z,7.40
2018-01-22T09:17:39.090Z,7.40
2018-01-22T09:20:07.490Z,7.67
2018-01-22T09:22:35.918Z,7.23
2018-01-22T09:25:04.289Z,7.50
2018-01-22T09:27:32.681Z,7.37
2018-01-22T09:30:01.127Z,8.13
2018-01-22T09:32:29.550Z,7.07
2018-01-22T09:34:57.945Z,6.83
2018-01-22T09:37:26.397Z,7.33
2018-01-22T09:39:54.809Z,6.93
2018-01-22T09:42:23.238Z,6.80
2018-01-22T09:44:51.700Z,6.63
2018-01-22T09:47:20.094Z,7.07
2018-01-22T09:49:48.478Z,6.80
2018-01-22T09:52:16.942Z,6.77
2018-01-22T09:54:45.372Z,5.87
2018-01-22T09:57:13.765Z,6.53
2018-01-22T09:59:42.188Z,7.07
2018-01-22T10:02:10.557Z,6.63
2018-01-22T10:04:38.959Z,6.97
2018-01-22T10:07:07.436Z,7.30
2018-01-22T10:09:35.813Z,6.93
2018-01-22T10:12:04.219Z,6.90
2018-01-22T10:14:32.640Z,6.50
2018-01-22T10:17:01.055Z,7.33
2018-01-22T10:19:29.462Z,6.87
2018-01-22T10:21:57.907Z,6.57
2018-01-22T10:24:26.342Z,6.67
2018-01-22T10:26:54.729Z,6.37
2018-01-22T10:29:23.168Z,6.53
2018-01-22T10:31:51.543Z,7.30
2018-01-22T10:34:19.930Z,6.70
2018-01-22T10:36:48.382Z,6.20
2018-01-22T10:39:16.761Z,8.10
2018-01-22T10:41:45.142Z,7.23
2018-01-22T10:44:13.564Z,7.03
2018-01-22T10:46:41.983Z,7.10
2018-01-22T10:49:10.410Z,7.43
2018-01-22T10:51:38.863Z,6.83
2018-01-22T10:54:07.246Z,6.23
2018-01-22T10:56:35.653Z,6.67
2018-01-22T10:59:04.080Z,7.70
2018-01-22T11:01:32.485Z,7.77
2018-01-22T11:04:00.863Z,7.37
2018-01-22T11:06:29.335Z,7.10
2018-01-22T11:08:57.750Z,7.93
2018-01-22T11:11:26.165Z,7.10
2018-01-22T11:13:54.628Z,7.07
2018-01-22T11:16:23.020Z,7.03
2018-01-22T11:18:51.436Z,7.53
2018-01-22T11:21:19.895Z,7.40
2018-01-22T11:23:48.316Z,6.77
2018-01-22T11:26:16.719Z,7.07
2018-01-22T11:28:45.149Z,6.63
2018-01-22T11:31:13.534Z,6.83
2018-01-22T11:33:41.952Z,7.27
2018-01-22T11:36:10.405Z,6.60
2018-01-22T11:38:38.830Z,7.30
2018-01-22T11:41:07.245Z,7.03
2018-01-22T11:43:35.669Z,6.93
2018-01-22T11:46:04.091Z,7.70
2018-01-22T11:48:32.514Z,9.13
2018-01-22T11:51:00.995Z,8.30
2018-01-22T11:53:29.408Z,7.57
2018-01-22T11:55:57.816Z,11.87
2018-01-22T11:58:26.279Z,6.30
2018-01-22T12:00:54.670Z,6.20
2018-01-22T12:03:23.085Z,7.97
2018-01-22T12:05:51.651Z,5.90
2018-01-22T12:08:20.025Z,7.73
2018-01-22T12:10:48.406Z,6.20
2018-01-22T12:13:16.841Z,5.63
2018-01-22T12:15:45.908Z,5.93
2018-01-22T12:18:14.337Z,6.37
2018-01-22T12:20:42.794Z,6.00
2018-01-22T12:23:11.239Z,5.87
2018-01-22T12:25:39.709Z,5.93
2018-01-22T12:28:08.181Z,6.10
2018-01-22T12:30:36.635Z,6.23
2018-01-22T12:33:05.059Z,5.93
2018-01-22T12:35:33.551Z,6.47
2018-01-22T12:38:02.009Z,5.93
2018-01-22T12:40:30.455Z,5.93
2018-01-22T12:42:59.858Z,6.63
2018-01-22T12:45:28.258Z,6.03
2018-01-22T12:47:56.699Z,6.00
2018-01-22T12:50:25.145Z,5.90
2018-01-22T12:52:53.594Z,5.40
2018-01-22T12:55:22.018Z,5.40
2018-01-22T12:57:50.490Z,6.00
2018-01-22T13:00:18.906Z,5.73
2018-01-22T13:02:47.340Z,7.10
2018-01-22T13:05:15.983Z,8.80
2018-01-22T13:07:44.398Z,5.77
2018-01-22T13:10:12.810Z,5.60
2018-01-22T13:12:41.287Z,5.27
2018-01-22T13:15:09.726Z,5.13
2018-01-22T13:17:38.144Z,5.27
2018-01-22T13:20:06.642Z,4.90
2018-01-22T13:22:35.075Z,5.07
2018-01-22T13:25:03.525Z,4.67
2018-01-22T13:27:32.018Z,5.00
2018-01-22T13:30:00.442Z,5.10
2018-01-22T13:32:28.846Z,5.23
2018-01-22T13:34:57.336Z,4.87
2018-01-22T13:37:25.741Z,5.13
2018-01-22T13:39:59.691Z,5.77
2018-01-22T13:42:28.102Z,5.40
2018-01-22T13:44:56.509Z,6.07
2018-01-22T13:47:24.982Z,5.37
2018-01-22T13:49:53.409Z,5.50
2018-01-22T13:52:21.838Z,5.97
2018-01-22T13:54:50.334Z,6.07
2018-01-22T13:57:18.775Z,6.30
2018-01-22T13:59:47.217Z,6.23
2018-01-22T14:02:15.674Z,7.30
2018-01-22T14:04:44.098Z,5.47
2018-01-22T14:07:12.540Z,4.77
2018-01-22T14:09:40.997Z,5.60
2018-01-22T14:12:09.439Z,6.10
2018-01-22T14:14:37.898Z,6.00
2018-01-22T14:17:06.369Z,8.60
2018-01-22T14:19:34.817Z,10.07
2018-01-22T14:22:03.268Z,10.27
2018-01-22T14:24:32.051Z,7.50
2018-01-22T14:27:00.491Z,6.70
2018-01-22T14:29:28.909Z,6.50
2018-01-22T14:31:57.374Z,7.23
2018-01-22T14:34:25.806Z,6.93
2018-01-22T14:36:54.226Z,11.87
2018-01-22T14:39:22.668Z,9.10
2018-01-22T14:41:51.077Z,7.00
2018-01-22T14:44:19.514Z,6.03
2018-01-22T14:46:47.974Z,5.07
2018-01-22T14:49:16.381Z,5.23
2018-01-22T14:51:44.807Z,6.33
2018-01-22T14:54:13.254Z,6.50
2018-01-22T14:56:41.660Z,12.27
2018-01-22T14:59:10.084Z,12.97
2018-01-22T15:01:38.582Z,10.97
2018-01-22T15:04:07.033Z,7.33
2018-01-22T15:06:35.482Z,6.70
2018-01-22T15:09:04.034Z,5.77
2018-01-22T15:11:32.475Z,6.20
2018-01-22T15:14:00.877Z,7.10
2018-01-22T15:16:29.343Z,6.80
2018-01-22T15:18:57.759Z,6.00
2018-01-22T15:21:26.174Z,4.83
2018-01-22T15:23:54.646Z,6.20
2018-01-22T15:26:23.082Z,5.33
2018-01-22T15:28:51.568Z,4.60
2018-01-22T15:31:20.016Z,5.33
2018-01-22T15:33:48.451Z,5.67
2018-01-22T15:36:16.865Z,5.70
2018-01-22T15:38:45.335Z,7.00
2018-01-22T15:41:13.745Z,6.50
2018-01-22T15:43:42.216Z,7.27
2018-01-22T15:46:10.856Z,7.23
2018-01-22T15:48:39.266Z,8.40
2018-01-22T15:51:07.708Z,7.60
2018-01-22T15:53:36.210Z,7.97
2018-01-22T15:56:04.622Z,6.13
2018-01-22T15:58:33.066Z,6.73
2018-01-22T16:01:01.550Z,8.00
2018-01-22T16:03:30.035Z,8.40
2018-01-22T16:05:58.477Z,7.13
2018-01-22T16:08:26.961Z,7.93
2018-01-22T16:10:55.377Z,7.90
2018-01-22T16:13:23.819Z,8.87
2018-01-22T16:15:52.308Z,9.10
2018-01-22T16:18:20.752Z,9.00
2018-01-22T16:20:49.195Z,9.20
2018-01-22T16:23:17.646Z,9.00
2018-01-22T16:25:46.088Z,10.60
2018-01-22T16:28:14.547Z,10.23
2018-01-22T16:30:43.186Z,10.33
2018-01-22T16:33:11.626Z,9.37
2018-01-22T16:35:40.079Z,10.23
2018-01-22T16:38:08.556Z,10.07
2018-01-22T16:40:36.985Z,8.57
2018-01-22T16:43:05.421Z,10.10
2018-01-22T16:45:33.947Z,10.93
2018-01-22T16:48:02.375Z,11.03
2018-01-22T16:50:30.814Z,10.33
2018-01-22T16:52:59.314Z,10.97
2018-01-22T16:55:27.758Z,11.00
2018-01-22T16:57:56.184Z,11.53
2018-01-22T17:00:24.676Z,12.30
2018-01-22T17:02:53.097Z,11.00
2018-01-22T17:05:21.546Z,12.83
2018-01-22T17:07:50.009Z,12.13
2018-01-22T17:10:18.422Z,12.23
2018-01-22T17:12:46.835Z,13.00
2018-01-22T17:15:15.326Z,10.90
2018-01-22T17:17:43.781Z,12.27
2018-01-22T17:20:12.232Z,13.73
2018-01-22T17:22:40.689Z,14.33
2018-01-22T17:25:26.769Z,15.27
2018-01-22T17:27:55.228Z,14.70
2018-01-22T17:30:23.650Z,15.33
2018-01-22T17:32:52.071Z,14.33
2018-01-22T17:35:20.545Z,15.07
2018-01-22T17:37:49.027Z,16.97
2018-01-22T17:40:17.447Z,17.10
2018-01-22T17:42:46.006Z,17.63
2018-01-22T17:45:14.422Z,19.00
2018-01-22T17:47:42.886Z,17.10
2018-01-22T17:50:11.362Z,17.93
2018-01-22T17:52:39.754Z,19.27
2018-01-22T17:55:08.137Z,18.23
2018-01-22T17:57:36.617Z,19.67
2018-01-22T18:00:06.013Z,19.57
2018-01-22T18:02:34.439Z,21.60
2018-01-22T18:05:02.907Z,19.93
2018-01-22T18:07:31.339Z,18.87
2018-01-22T18:09:59.766Z,20.27
2018-01-22T18:12:28.224Z,20.57
2018-01-22T18:14:56.643Z,19.83
2018-01-22T18:17:25.032Z,20.60
2018-01-22T18:19:53.477Z,21.50
2018-01-22T18:22:21.871Z,21.13
2018-01-22T18:24:50.256Z,20.10
2018-01-22T18:27:18.723Z,21.37
2018-01-22T18:29:47.126Z,20.73
2018-01-22T18:32:15.542Z,20.10
2018-01-22T18:34:44.110Z,19.43
2018-01-22T18:37:12.490Z,17.73
2018-01-22T18:39:40.905Z,19.97
2018-01-22T18:42:09.358Z,18.00
2018-01-22T18:44:37.757Z,19.60
2018-01-22T18:47:06.186Z,18.27
2018-01-22T18:49:34.638Z,19.73
2018-01-22T18:52:03.078Z,18.90
2018-01-22T18:54:31.465Z,17.47
2018-01-22T18:56:59.921Z,18.77
2018-01-22T18:59:28.335Z,19.33
2018-01-22T19:01:56.785Z,18.60
2018-01-22T19:04:25.258Z,17.67
2018-01-22T19:06:53.645Z,19.50
2018-01-22T19:09:22.062Z,19.17
2018-01-22T19:11:50.524Z,18.57
2018-01-22T19:14:18.919Z,18.33
2018-01-22T19:16:47.303Z,17.80
2018-01-22T19:19:15.743Z,17.47
2018-01-22T19:21:44.160Z,18.10
2018-01-22T19:24:12.570Z,17.60
2018-01-22T19:26:41.043Z,17.03
2018-01-22T19:29:09.462Z,15.73
2018-01-22T19:31:37.887Z,15.80
2018-01-22T19:34:06.354Z,15.50
2018-01-22T19:36:34.750Z,16.23
2018-01-22T19:39:03.200Z,15.13
2018-01-22T19:41:31.692Z,16.73
2018-01-22T19:44:00.089Z,15.27
2018-01-22T19:46:28.507Z,15.60
2018-01-22T19:48:56.969Z,15.27
2018-01-22T19:51:25.394Z,16.80
2018-01-22T19:53:53.817Z,15.90
2018-01-22T19:56:22.247Z,16.53
2018-01-22T19:58:50.665Z,15.93
2018-01-22T20:01:19.057Z,16.17
2018-01-22T20:03:47.496Z,17.10
2018-01-22T20:06:15.922Z,16.77
2018-01-22T20:08:44.314Z,15.97
2018-01-22T20:11:12.746Z,16.30
2018-01-22T20:13:41.199Z,16.33
2018-01-22T20:16:09.596Z,15.93
2018-01-22T20:18:38.068Z,14.90
2018-01-22T20:21:06.550Z,15.93
2018-01-22T20:23:34.954Z,16.30
2018-01-22T20:26:03.424Z,16.00
2018-01-22T20:28:31.813Z,15.93
2018-01-22T20:31:00.247Z,16.67
2018-01-22T20:33:28.712Z,17.40
2018-01-22T20:35:57.138Z,16.53
2018-01-22T20:38:25.593Z,17.97
2018-01-22T20:40:54.122Z,18.47
2018-01-22T20:43:22.522Z,18.90
2018-01-22T20:45:50.909Z,19.60
2018-01-22T20:48:19.357Z,20.57
2018-01-22T20:50:47.787Z,18.93
2018-01-22T20:53:16.182Z,19.37
2018-01-22T20:55:44.612Z,19.50
2018-01-22T20:58:13.039Z,17.30
2018-01-22T21:00:41.481Z,18.07
2018-01-22T21:03:09.956Z,15.90
2018-01-22T21:05:38.377Z,16.70
2018-01-22T21:08:06.803Z,16.17
2018-01-22T21:10:35.272Z,15.60
2018-01-22T21:13:03.665Z,15.97
2018-01-22T21:15:32.066Z,15.87
2018-01-22T21:18:00.506Z,16.13
2018-01-22T21:20:28.908Z,15.07
2018-01-22T21:22:57.327Z,15.60
2018-01-22T21:25:25.793Z,14.73
2018-01-22T21:27:54.208Z,13.73
2018-01-22T21:30:22.609Z,14.53
2018-01-22T21:32:51.059Z,14.63
2018-01-22T21:35:19.453Z,15.17
2018-01-22T21:37:47.847Z,13.13
2018-01-22T21:40:16.337Z,14.53
2018-01-22T21:42:44.755Z,14.13
2018-01-22T21:45:13.138Z,13.37
2018-01-22T21:47:41.558Z,14.20
2018-01-22T21:50:09.949Z,14.20
2018-01-22T21:52:38.363Z,13.27
2018-01-22T21:55:07.133Z,11.77
2018-01-22T21:57:35.573Z,11.57
2018-01-22T22:00:04.059Z,12.57
2018-01-22T22:02:32.499Z,12.80
2018-01-22T22:05:00.914Z,12.63
2018-01-22T22:07:29.349Z,12.17
2018-01-22T22:09:57.805Z,13.17
2018-01-22T22:12:26.226Z,12.20
2018-01-22T22:14:54.617Z,12.30
2018-01-22T22:17:23.969Z,12.57
2018-01-22T22:19:52.399Z,12.60
2018-01-22T22:22:20.840Z,13.00
2018-01-22T22:24:49.307Z,13.70
2018-01-22T22:27:17.713Z,13.20
2018-01-22T22:29:46.113Z,12.53
2018-01-22T22:32:14.551Z,11.80
2018-01-22T22:34:42.942Z,12.50
2018-01-22T22:37:11.335Z,11.57
2018-01-22T22:39:39.882Z,11.90
2018-01-22T22:42:08.309Z,11.80
2018-01-22T22:44:36.743Z,12.20
2018-01-22T22:47:05.241Z,12.90
2018-01-22T22:49:33.670Z,11.73
2018-01-22T22:52:02.078Z,12.33
2018-01-22T22:54:30.526Z,13.03
2018-01-22T22:56:58.946Z,12.77
2018-01-22T22:59:27.352Z,13.03
2018-01-22T23:01:55.813Z,11.87
2018-01-22T23:04:24.239Z,10.87
2018-01-22T23:06:52.645Z,12.23
2018-01-22T23:09:21.106Z,11.87
2018-01-22T23:11:49.533Z,11.60
2018-01-22T23:14:17.952Z,11.87
2018-01-22T23:16:46.427Z,12.23
2018-01-22T23:19:14.882Z,12.03
2018-01-22T23:21:43.312Z,11.67
2018-01-22T23:24:11.895Z,11.33
2018-01-22T23:26:40.285Z,11.77
2018-01-22T23:29:08.711Z,11.40
2018-01-22T23:31:37.169Z,11.80
2018-01-22T23:34:05.558Z,11.80
2018-01-22T23:36:33.964Z,12.27
2018-01-22T23:39:02.469Z,13.00
2018-01-22T23:41:30.889Z,13.33
2018-01-22T23:43:59.285Z,12.30
2018-01-22T23:46:27.732Z,12.57
2018-01-22T23:48:56.172Z,12.93
2018-01-22T23:51:24.603Z,12.37
2018-01-22T23:53:53.059Z,13.23
2018-01-22T23:56:21.484Z,11.50
2018-01-22T23:58:49.887Z,13.10
